createdAt,value
2019-02-05T00:06:46.821Z,38.87
2019-02-05T00:21:50.699Z,38.20
2019-02-05T00:36:54.521Z,43.43
2019-02-05T00:51:58.334Z,49.67
2019-02-05T01:07:02.313Z,52.97
2019-02-05T01:22:06.429Z,60.73
2019-02-05T01:37:10.318Z,64.77
2019-02-05T01:52:14.062Z,63.20
2019-02-05T02:07:17.833Z,59.47
2019-02-05T02:22:21.647Z,60.53
2019-02-05T02:37:44.763Z,62.37
2019-02-05T02:52:48.906Z,70.53
2019-02-05T03:07:52.651Z,64.87
2019-02-05T03:22:56.505Z,65.30
2019-02-05T03:38:00.283Z,60.50
2019-02-05T03:53:25.046Z,71.23
2019-02-05T04:08:31.899Z,67.40
2019-02-05T04:23:56.717Z,69.97
2019-02-05T04:39:05.609Z,78.43
2019-02-05T04:54:30.511Z,74.40
2019-02-05T05:09:37.784Z,77.63
2019-02-05T05:24:41.536Z,86.67
2019-02-05T05:39:45.103Z,78.73
2019-02-05T05:54:48.943Z,93.93
2019-02-05T06:09:53.327Z,88.10
2019-02-05T06:24:57.040Z,101.67
2019-02-05T06:40:21.313Z,103.27
2019-02-05T06:55:25.088Z,96.53
2019-02-05T07:10:28.839Z,77.93
2019-02-05T07:25:32.570Z,69.30
2019-02-05T07:40:36.396Z,62.47
2019-02-05T07:55:40.311Z,64.50
2019-02-05T08:10:43.980Z,70.63
2019-02-05T08:25:47.562Z,65.67
2019-02-05T08:40:50.992Z,67.33
2019-02-05T08:55:54.526Z,49.83
2019-02-05T09:10:58.436Z,63.77
2019-02-05T09:26:02.095Z,65.13
2019-02-05T09:41:05.703Z,55.60
2019-02-05T09:56:09.361Z,58.33
2019-02-05T10:11:13.382Z,66.70
2019-02-05T10:26:18.283Z,67.53
2019-02-05T10:41:22.008Z,70.33
2019-02-05T10:56:25.793Z,70.03
2019-02-05T11:11:30.024Z,72.40
2019-02-05T11:26:36.722Z,79.77
2019-02-05T11:41:39.624Z,76.77
2019-02-05T11:56:43.629Z,75.30
2019-02-05T12:11:47.627Z,82.73
2019-02-05T12:26:51.400Z,85.53
2019-02-05T12:42:08.846Z,85.97
2019-02-05T12:57:12.374Z,78.07
2019-02-05T13:12:15.977Z,76.40
2019-02-05T13:27:19.851Z,69.70
2019-02-05T13:42:24.182Z,83.70
2019-02-05T13:57:28.301Z,63.40
2019-02-05T14:12:31.990Z,75.07
2019-02-05T14:27:35.631Z,66.97
2019-02-05T14:42:39.416Z,62.07
2019-02-05T14:57:43.694Z,61.03
2019-02-05T15:12:48.082Z,61.80
2019-02-05T15:27:51.653Z,53.40
2019-02-05T15:42:55.270Z,44.67
2019-02-05T15:57:59.153Z,48.97
2019-02-05T16:13:03.285Z,53.70
2019-02-05T16:28:07.036Z,54.27
2019-02-05T16:43:10.791Z,48.13
2019-02-05T16:58:14.709Z,52.13
2019-02-05T17:13:18.435Z,58.07
2019-02-05T17:28:27.971Z,51.57
2019-02-05T17:43:31.956Z,53.60
2019-02-05T17:58:35.633Z,67.40
2019-02-05T18:13:39.590Z,50.67
2019-02-05T18:28:43.591Z,50.57
2019-02-05T18:44:11.869Z,47.23
2019-02-05T18:59:35.589Z,48.23
2019-02-05T19:14:39.518Z,44.33
2019-02-05T19:29:46.553Z,42.57
2019-02-05T19:44:52.283Z,50.43
2019-02-05T19:59:56.165Z,45.80
2019-02-05T20:14:59.950Z,46.87
2019-02-05T20:30:07.588Z,42.13
2019-02-05T20:45:14.335Z,48.53
2019-02-05T21:00:21.654Z,42.40
2019-02-05T21:15:31.201Z,45.63
2019-02-05T21:46:06.631Z,41.93
2019-02-05T22:01:10.314Z,46.17
2019-02-05T22:16:14.355Z,48.97
2019-02-05T22:31:18.037Z,49.53
2019-02-05T23:01:51.269Z,47.67
2019-02-05T23:16:55.176Z,50.60
2019-02-05T23:31:59.020Z,46.67
2019-02-05T23:47:02.773Z,50.33
